Time;durP1;ratioP1;P1;durP2;ratioP2;P2;SDS_P1;SDS_P2;PMS_P1;PMS_P2;Temp;Humidity;BMP_temperature;BMP_pressure;BME280_temperature;BME280_humidity;BME280_pressure;Samples;Min_cycle;Max_cycle;Signal;HPM_P1;HPM_P2
2021/01/25 00:01:16;;;;;;;19.13;10.00;;;;;;;;;;4943580;29;20024;-81
2021/01/25 00:03:43;;;;;;;19.35;10.77;;;2.30;99.90;;;;;;4945959;28;20039;-82
2021/01/25 00:06:09;;;;;;;20.60;11.07;;;;;;;;;;4922859;29;20040;-82
2021/01/25 00:08:36;;;;;;;22.98;11.27;;;;;;;;;;4944287;28;20036;-82
2021/01/25 00:11:02;;;;;;;21.92;11.52;;;;;;;;;;4936024;29;20119;-82
2021/01/25 00:13:33;;;;;;;20.38;11.32;;;;;;;;;;4919852;29;20040;-82
2021/01/25 00:16:04;;;;;;;18.92;10.38;;;2.30;99.90;;;;;;4922649;29;20032;-82
2021/01/25 00:18:30;;;;;;;22.38;11.00;;;;;;;;;;4942401;28;20381;-82
2021/01/25 00:20:59;;;;;;;21.50;11.80;;;;;;;;;;4924671;29;20399;-81
2021/01/25 00:23:25;;;;;;;19.27;10.48;;;;;;;;;;4933410;29;20043;-83
2021/01/25 00:25:54;;;;;;;15.85;9.55;;;2.40;99.90;;;;;;4944326;29;20027;-83
2021/01/25 00:28:20;;;;;;;16.75;9.38;;;;;;;;;;4949736;28;20072;-82
2021/01/25 00:30:46;;;;;;;15.50;8.40;;;;;;;;;;4939959;29;20059;-82
2021/01/25 00:33:15;;;;;;;16.67;8.70;;;;;;;;;;4957147;28;20059;-83
2021/01/25 00:35:41;;;;;;;15.15;9.07;;;;;;;;;;4918240;29;20040;-83
2021/01/25 00:38:07;;;;;;;14.77;8.45;;;;;;;;;;4943702;28;20032;-82
2021/01/25 00:40:33;;;;;;;18.85;10.35;;;;;;;;;;4952112;29;20019;-82
2021/01/25 00:43:02;;;;;;;16.48;8.75;;;;;;;;;;4934920;29;20028;-82
2021/01/25 00:45:28;;;;;;;14.15;8.50;;;;;;;;;;4950427;28;20472;-83
2021/01/25 00:47:54;;;;;;;14.35;8.75;;;;;;;;;;4937270;29;20055;-79
2021/01/25 00:50:22;;;;;;;16.95;9.55;;;;;;;;;;4921191;29;20038;-82
2021/01/25 00:52:48;;;;;;;14.30;8.55;;;;;;;;;;4951588;29;20028;-81
2021/01/25 00:55:14;;;;;;;14.45;8.32;;;;;;;;;;4941459;28;20084;-82
2021/01/25 00:57:48;;;;;;;14.23;9.10;;;2.50;99.90;;;;;;4952828;29;20036;-82
2021/01/25 01:00:15;;;;;;;16.08;9.38;;;2.40;99.90;;;;;;4950998;28;20106;-83
2021/01/25 01:02:45;;;;;;;16.35;8.63;;;;;;;;;;4924863;29;20060;-83
2021/01/25 01:05:11;;;;;;;15.13;8.00;;;;;;;;;;4941455;28;20384;-82
2021/01/25 01:07:37;;;;;;;18.80;9.98;;;;;;;;;;4966406;29;20047;-82
2021/01/25 01:10:09;;;;;;;14.88;9.10;;;;;;;;;;4931088;29;20031;-82
2021/01/25 01:12:35;;;;;;;;;;;2.50;99.90;;;;;;4949416;29;20047;-82
2021/01/25 01:15:01;;;;;;;15.13;9.02;;;;;;;;;;4948184;28;19911;-83
2021/01/25 01:17:27;;;;;;;14.75;9.70;;;;;;;;;;4924919;29;20439;-82
2021/01/25 01:19:53;;;;;;;15.52;9.43;;;;;;;;;;4931579;28;20508;-82
2021/01/25 01:22:20;;;;;;;15.63;9.68;;;;;;;;;;4908226;29;20035;-82
2021/01/25 01:24:46;;;;;;;16.67;9.30;;;;;;;;;;4924992;29;20047;-82
2021/01/25 01:27:12;;;;;;;17.15;9.77;;;;;;;;;;4929905;29;20031;-83
2021/01/25 01:29:38;;;;;;;15.63;9.00;;;;;;;;;;4926562;29;20392;-82
2021/01/25 01:32:04;;;;;;;15.57;9.15;;;;;;;;;;4948541;28;20117;-82
2021/01/25 01:34:30;;;;;;;17.65;10.20;;;;;;;;;;4928030;29;20031;-82
2021/01/25 01:36:59;;;;;;;17.40;10.02;;;;;;;;;;4948336;28;20031;-83
2021/01/25 01:39:25;;;;;;;18.00;11.15;;;;;;;;;;4948751;29;20032;-81
2021/01/25 01:41:54;;;;;;;19.13;11.40;;;;;;;;;;4929982;29;20483;-81
2021/01/25 01:44:20;;;;;;;19.75;11.30;;;;;;;;;;4929842;29;20031;-82
2021/01/25 01:46:46;;;;;;;18.02;11.15;;;2.60;99.90;;;;;;4953088;28;20054;-81
2021/01/25 01:49:13;;;;;;;21.35;12.10;;;1.90;99.90;;;;;;4942574;29;20028;-83
2021/01/25 01:51:39;;;;;;;20.25;11.48;;;2.60;99.90;;;;;;4935966;29;20038;-80
2021/01/25 01:54:07;;;;;;;20.50;12.27;;;2.50;99.90;;;;;;4941362;29;20039;-82
2021/01/25 01:56:34;;;;;;;24.25;12.43;;;2.50;99.90;;;;;;4939405;29;20184;-82
2021/01/25 01:58:59;;;;;;;24.10;12.63;;;2.40;99.90;;;;;;4942059;29;20026;-81
2021/01/25 02:01:25;;;;;;;19.60;12.80;;;2.40;99.90;;;;;;4945902;29;20055;-82
2021/01/25 02:03:50;;;;;;;21.67;12.93;;;2.30;99.90;;;;;;4947961;28;20028;-82
2021/01/25 02:06:18;;;;;;;20.52;12.05;;;2.30;99.90;;;;;;4942701;29;20388;-81
2021/01/25 02:08:46;;;;;;;24.02;13.43;;;2.30;99.90;;;;;;4943244;29;20066;-84
2021/01/25 02:11:13;;;;;;;18.70;11.77;;;2.30;99.90;;;;;;4944819;29;20028;-82
2021/01/25 02:13:39;;;;;;;25.63;14.82;;;2.20;99.90;;;;;;4950903;28;20101;-82
2021/01/25 02:16:05;;;;;;;25.40;13.27;;;2.10;99.90;;;;;;4949258;29;20032;-82
2021/01/25 02:18:35;;;;;;;22.02;12.50;;;2.00;99.90;;;;;;4950809;28;20022;-83
2021/01/25 02:21:05;;;;;;;21.27;13.17;;;1.80;99.90;;;;;;4952547;29;20428;-82
2021/01/25 02:23:36;;;;;;;23.00;13.30;;;1.80;99.90;;;;;;4943818;29;20039;-82
2021/01/25 02:26:02;;;;;;;22.23;13.03;;;1.80;99.90;;;;;;4952317;29;20126;-81
2021/01/25 02:28:36;;;;;;;24.60;12.93;;;1.70;99.90;;;;;;4942957;28;20023;-81
2021/01/25 02:31:08;;;;;;;26.42;13.85;;;1.50;99.90;;;;;;4929014;29;20064;-82
2021/01/25 02:33:37;;;;;;;21.70;12.40;;;1.70;99.90;;;;;;4932088;29;20028;-82
2021/01/25 02:36:03;;;;;;;22.90;13.05;;;1.70;99.90;;;;;;4932465;29;20029;-82
2021/01/25 02:38:29;;;;;;;19.80;12.38;;;1.70;99.90;;;;;;4928778;29;20108;-83
2021/01/25 02:40:58;;;;;;;21.55;13.20;;;1.70;99.90;;;;;;4932712;29;20100;-83
2021/01/25 02:43:24;;;;;;;22.45;12.68;;;1.70;99.90;;;;;;4935071;29;20028;-81
2021/01/25 02:45:51;;;;;;;24.63;15.48;;;1.80;99.90;;;;;;4941654;29;20031;-83
2021/01/25 02:48:17;;;;;;;24.25;13.70;;;1.70;99.90;;;;;;4940373;29;20414;-83
2021/01/25 02:50:50;;;;;;;21.73;13.63;;;1.70;99.90;;;;;;4930327;29;20044;-82
2021/01/25 02:53:15;;;;;;;23.33;14.15;;;1.60;99.90;;;;;;4931288;29;20060;-83
2021/01/25 02:55:41;;;;;;;27.08;13.63;;;1.70;99.90;;;;;;4937852;29;20040;-83
2021/01/25 02:58:10;;;;;;;23.70;13.90;;;1.70;99.90;;;;;;4931821;29;20090;-82
2021/01/25 03:00:36;;;;;;;24.55;14.43;;;1.70;99.90;;;;;;4935373;29;20047;-82
2021/01/25 03:03:02;;;;;;;24.73;13.85;;;1.90;99.90;;;;;;4934945;29;20059;-82
2021/01/25 03:05:29;;;;;;;23.00;13.27;;;1.80;99.90;;;;;;4930816;29;20091;-83
2021/01/25 03:07:56;;;;;;;24.02;14.45;;;1.90;99.90;;;;;;4937834;29;20040;-84
2021/01/25 03:10:22;;;;;;;24.90;14.10;;;1.90;99.90;;;;;;4931794;29;20099;-84
2021/01/25 03:13:14;;;;;;;22.20;13.85;;;1.80;99.90;;;;;;4927419;29;20039;-84
2021/01/25 03:15:39;;;;;;;;;;;1.90;99.90;;;;;;4926466;29;20047;-82
2021/01/25 03:18:05;;;;;;;21.33;12.38;;;1.90;99.90;;;;;;4934555;29;19911;-83
2021/01/25 03:20:31;;;;;;;20.70;12.73;;;1.90;99.90;;;;;;4927280;29;20071;-83
2021/01/25 03:22:57;;;;;;;20.25;11.75;;;1.90;99.90;;;;;;4925367;29;20032;-81
2021/01/25 03:25:23;;;;;;;19.55;12.20;;;1.70;99.90;;;;;;4929427;29;20052;-82
2021/01/25 03:27:48;;;;;;;19.70;11.52;;;1.90;99.90;;;;;;4925161;29;20524;-82
2021/01/25 03:30:16;;;;;;;19.15;11.35;;;1.90;99.90;;;;;;4932853;29;20047;-82
2021/01/25 03:32:42;;;;;;;18.17;10.77;;;1.90;99.90;;;;;;4924785;29;20032;-82
2021/01/25 03:35:09;;;;;;;18.80;10.18;;;1.90;99.90;;;;;;4937100;29;20056;-82
2021/01/25 03:37:36;;;;;;;18.70;11.18;;;1.90;99.90;;;;;;4924329;29;20024;-83
2021/01/25 03:40:02;;;;;;;15.80;10.13;;;1.90;99.90;;;;;;4937361;29;20028;-83
2021/01/25 03:42:28;;;;;;;18.13;9.82;;;1.90;99.90;;;;;;4926741;29;21088;-82
2021/01/25 03:44:53;;;;;;;19.85;11.27;;;1.90;99.90;;;;;;4931672;29;20059;-82
2021/01/25 03:47:19;;;;;;;17.58;11.05;;;1.90;99.90;;;;;;4931667;29;20064;-82
2021/01/25 03:49:44;;;;;;;16.50;9.48;;;1.90;99.90;;;;;;4935796;29;20024;-81
2021/01/25 03:52:10;;;;;;;17.33;10.45;;;1.90;99.90;;;;;;4934777;29;20036;-82
2021/01/25 03:54:35;;;;;;;19.30;9.95;;;2.00;99.90;;;;;;4935860;29;20032;-83
2021/01/25 03:57:02;;;;;;;19.55;10.25;;;2.00;99.90;;;;;;4934460;29;20044;-82
2021/01/25 03:59:29;;;;;;;17.92;9.90;;;1.90;99.90;;;;;;4934315;29;20028;-81
2021/01/25 04:01:55;;;;;;;17.50;10.38;;;1.90;99.90;;;;;;4934077;29;20008;-82
2021/01/25 04:04:21;;;;;;;15.52;10.20;;;1.80;99.90;;;;;;4932410;29;20016;-83
2021/01/25 04:06:47;;;;;;;18.95;10.63;;;1.70;99.90;;;;;;4936646;29;20047;-82
2021/01/25 04:09:12;;;;;;;19.23;10.48;;;1.60;99.90;;;;;;4936217;29;20125;-83
2021/01/25 04:11:38;;;;;;;17.92;10.57;;;1.50;99.90;;;;;;4926034;29;20025;-82
2021/01/25 04:14:05;;;;;;;17.80;10.52;;;1.50;99.90;;;;;;4936136;29;20031;-82
2021/01/25 04:16:30;;;;;;;17.60;10.65;;;1.50;99.90;;;;;;4936481;29;20043;-82
2021/01/25 04:18:56;;;;;;;19.83;11.15;;;1.60;99.90;;;;;;4935565;29;20031;-83
2021/01/25 04:21:22;;;;;;;18.50;10.38;;;1.60;99.90;;;;;;4937549;29;20087;-83
2021/01/25 04:23:52;;;;;;;19.10;12.35;;;1.60;99.90;;;;;;4932728;29;20073;-81
2021/01/25 04:26:20;;;;;;;21.63;11.27;;;1.70;99.90;;;;;;4933267;29;20040;-82
2021/01/25 04:28:46;;;;;;;26.00;12.63;;;1.80;99.90;;;;;;4936832;29;20028;-83
2021/01/25 04:31:11;;;;;;;20.40;11.43;;;1.80;99.90;;;;;;4927001;29;20082;-80
2021/01/25 04:33:38;;;;;;;19.10;11.80;;;1.80;99.90;;;;;;4909479;29;20032;-81
2021/01/25 04:36:04;;;;;;;23.92;12.77;;;1.90;99.90;;;;;;4905613;29;20401;-82
2021/01/25 04:38:30;;;;;;;24.27;13.93;;;1.90;99.90;;;;;;4920708;29;20855;-81
2021/01/25 04:41:00;;;;;;;21.60;12.15;;;1.90;99.90;;;;;;4933626;29;20036;-81
2021/01/25 04:43:27;;;;;;;20.95;13.05;;;1.90;99.90;;;;;;4923636;29;20016;-82
2021/01/25 04:45:54;;;;;;;23.30;13.35;;;1.90;99.90;;;;;;4935587;29;20084;-81
2021/01/25 04:48:21;;;;;;;19.13;11.43;;;1.90;99.90;;;;;;4936564;29;20032;-79
2021/01/25 04:50:49;;;;;;;26.90;12.82;;;1.90;99.90;;;;;;4934877;29;20059;-82
2021/01/25 04:53:15;;;;;;;24.77;13.15;;;1.90;99.90;;;;;;4937588;29;20028;-83
2021/01/25 04:55:42;;;;;;;22.48;12.10;;;1.90;99.90;;;;;;4938443;29;20024;-83
2021/01/25 04:58:07;;;;;;;24.23;13.15;;;2.00;99.90;;;;;;4935464;29;20159;-81
2021/01/25 05:00:33;;;;;;;22.77;13.30;;;2.00;99.90;;;;;;4937499;29;20072;-81
2021/01/25 05:02:59;;;;;;;22.83;12.93;;;1.90;99.90;;;;;;4938347;29;20024;-83
2021/01/25 05:05:24;;;;;;;23.00;12.73;;;2.10;99.90;;;;;;4932104;29;20036;-82
2021/01/25 05:07:50;;;;;;;22.00;12.32;;;2.00;99.90;;;;;;4934204;29;20063;-83
2021/01/25 05:10:15;;;;;;;19.65;12.48;;;2.00;99.90;;;;;;4935976;29;20040;-80
2021/01/25 05:12:48;;;;;;;21.75;12.30;;;2.00;99.90;;;;;;4926653;29;20092;-81
2021/01/25 05:15:34;;;;;;;20.90;11.70;;;2.10;99.90;;;;;;4927481;29;20052;-81
2021/01/25 05:18:06;;;;;;;28.27;14.70;;;2.20;99.90;;;;;;4935421;29;20024;-81
2021/01/25 05:20:32;;;;;;;26.25;13.77;;;2.20;99.90;;;;;;4923408;29;20028;-81
2021/01/25 05:23:01;;;;;;;24.75;14.82;;;2.20;99.90;;;;;;4936764;29;20060;-81
2021/01/25 05:25:29;;;;;;;24.92;14.02;;;2.20;99.90;;;;;;4923493;29;20036;-81
2021/01/25 05:27:58;;;;;;;30.88;15.35;;;2.20;99.90;;;;;;4929578;29;20028;-81
2021/01/25 05:30:29;;;;;;;25.55;14.43;;;2.20;99.90;;;;;;4940470;29;20119;-81
2021/01/25 05:32:57;;;;;;;29.83;15.00;;;2.20;99.90;;;;;;4928085;29;20118;-81
2021/01/25 05:35:28;;;;;;;29.17;15.20;;;2.10;99.90;;;;;;4944011;29;20473;-81
2021/01/25 05:37:58;;;;;;;27.45;15.18;;;2.10;99.90;;;;;;4943880;29;20031;-81
2021/01/25 05:40:25;;;;;;;33.80;17.60;;;2.10;99.90;;;;;;4948817;29;20016;-80
2021/01/25 05:42:52;;;;;;;32.33;16.35;;;2.20;99.90;;;;;;4950365;29;20032;-82
2021/01/25 05:45:18;;;;;;;29.88;17.65;;;2.20;99.90;;;;;;4925427;29;20039;-82
2021/01/25 05:47:50;;;;;;;30.73;17.50;;;2.20;99.90;;;;;;4939643;28;20094;-81
2021/01/25 05:50:32;;;;;;;35.00;18.35;;;2.20;99.90;;;;;;4942778;29;20059;-80
2021/01/25 05:53:05;;;;;;;;;;;2.20;99.90;;;;;;4940648;28;20028;-81
2021/01/25 05:55:32;;;;;;;26.27;14.90;;;2.30;99.90;;;;;;4945784;29;19911;-80
2021/01/25 05:57:58;;;;;;;35.60;17.77;;;2.30;99.90;;;;;;4943491;28;20035;-81
2021/01/25 06:00:25;;;;;;;31.63;19.60;;;2.30;99.90;;;;;;4923973;29;20028;-81
2021/01/25 06:02:52;;;;;;;31.00;16.88;;;2.20;99.90;;;;;;4943320;28;20112;-80
2021/01/25 06:05:40;;;;;;;30.17;16.63;;;2.30;99.90;;;;;;4922477;29;20121;-80
2021/01/25 06:08:48;;;;;;;33.80;18.17;;;2.30;99.90;;;;;;4945639;28;20043;-81
2021/01/25 06:11:18;;;;;;;31.30;17.17;;;2.30;99.90;;;;;;4946482;29;20031;-80
2021/01/25 06:14:07;;;;;;;29.27;16.58;;;2.30;99.90;;;;;;4942402;29;20036;-81
2021/01/25 06:16:34;;;;;;;31.83;15.98;;;2.20;99.90;;;;;;4933364;29;20035;-81
2021/01/25 06:19:06;;;;;;;29.33;17.35;;;2.20;99.90;;;;;;4953894;29;20056;-82
2021/01/25 06:21:37;;;;;;;29.65;17.08;;;2.30;99.90;;;;;;4933890;29;20031;-81
2021/01/25 06:24:04;;;;;;;31.15;17.05;;;2.30;99.90;;;;;;4959128;28;20024;-81
2021/01/25 06:29:07;;;;;;;28.83;17.05;;;2.30;99.90;;;;;;5046522;23;20052;-84
2021/01/25 06:31:37;;;;;;;34.28;18.27;;;2.30;99.90;;;;;;4934250;29;20081;-83
2021/01/25 06:34:07;;;;;;;29.30;17.05;;;2.30;99.90;;;;;;4935464;29;20052;-82
2021/01/25 06:36:38;;;;;;;33.63;18.65;;;2.20;99.90;;;;;;4938933;29;20069;-83
2021/01/25 06:39:07;;;;;;;35.03;19.20;;;2.30;99.90;;;;;;4925008;29;20027;-81
2021/01/25 06:41:41;;;;;;;35.75;19.80;;;2.30;99.90;;;;;;4938557;29;20020;-82
2021/01/25 06:44:08;;;;;;;35.38;20.58;;;2.20;99.90;;;;;;4917127;29;20032;-82
2021/01/25 06:46:36;;;;;;;29.88;17.45;;;2.30;99.90;;;;;;4943340;29;20032;-83
2021/01/25 06:49:05;;;;;;;33.33;18.23;;;2.30;99.90;;;;;;4941450;29;20032;-82
2021/01/25 06:51:31;;;;;;;33.90;18.90;;;;;;;;;;4912810;29;20115;-79
2021/01/25 06:54:00;;;;;;;35.50;19.25;;;2.30;99.90;;;;;;4918634;29;20021;-79
2021/01/25 06:56:25;;;;;;;35.97;19.98;;;2.30;99.90;;;;;;4925819;29;20024;-81
2021/01/25 06:58:51;;;;;;;38.78;18.83;;;2.30;99.90;;;;;;4940330;29;20032;-78
2021/01/25 07:01:22;;;;;;;38.22;21.38;;;2.30;99.90;;;;;;4933921;29;20045;-77
2021/01/25 07:03:56;;;;;;;37.22;20.50;;;2.30;99.90;;;;;;4928978;29;20041;-83
2021/01/25 07:06:34;;;;;;;35.80;19.92;;;2.40;99.90;;;;;;4930052;29;20056;-84
2021/01/25 07:09:06;;;;;;;37.17;19.88;;;2.30;99.90;;;;;;4941053;29;20083;-77
2021/01/25 07:11:34;;;;;;;38.72;20.60;;;2.30;99.90;;;;;;4935478;29;20042;-79
2021/01/25 07:13:59;;;;;;;38.60;20.75;;;2.40;99.90;;;;;;4930945;29;20020;-83
2021/01/25 07:16:26;;;;;;;39.17;21.65;;;2.40;99.90;;;;;;4930560;29;20088;-81
2021/01/25 07:18:53;;;;;;;36.60;18.52;;;2.30;99.90;;;;;;4938395;29;20035;-79
2021/01/25 07:21:20;;;;;;;39.50;21.45;;;2.30;99.90;;;;;;4936848;29;20047;-78
2021/01/25 07:23:50;;;;;;;37.17;19.77;;;2.30;99.90;;;;;;4939184;29;20028;-78
2021/01/25 07:26:17;;;;;;;35.10;19.27;;;2.30;99.90;;;;;;4939020;29;20035;-78
2021/01/25 07:28:44;;;;;;;42.28;22.25;;;2.30;99.90;;;;;;4928214;29;20048;-78
2021/01/25 07:31:10;;;;;;;39.90;20.70;;;2.30;99.90;;;;;;4919540;29;20056;-79
2021/01/25 07:33:37;;;;;;;34.38;17.92;;;2.40;99.90;;;;;;4927206;29;20032;-78
2021/01/25 07:36:03;;;;;;;32.80;19.27;;;;;;;;;;5028172;23;20040;-81
2021/01/25 07:38:29;;;;;;;32.83;18.83;;;;;;;;;;5093853;23;20031;-81
2021/01/25 07:41:00;;;;;;;34.80;19.52;;;2.40;99.90;;;;;;4940114;29;20048;-81
2021/01/25 07:43:29;;;;;;;33.33;18.52;;;2.40;99.90;;;;;;4958697;29;20031;-82
2021/01/25 07:46:09;;;;;;;34.47;18.08;;;2.40;99.90;;;;;;4950987;28;20023;-80
2021/01/25 07:48:48;;;;;;;32.67;17.42;;;2.40;99.90;;;;;;4915521;29;20028;-80
2021/01/25 07:51:33;;;;;;;30.77;17.60;;;2.50;99.90;;;;;;4935954;28;20091;-82
2021/01/25 07:54:13;;;;;;;31.23;17.10;;;2.40;99.90;;;;;;4939176;29;20051;-81
2021/01/25 07:56:41;;;;;;;30.92;18.00;;;;;;;;;;4936561;29;20039;-82
2021/01/25 07:59:10;;;;;;;33.38;18.30;;;;;;;;;;4946044;29;20099;-82
2021/01/25 08:01:57;;;;;;;33.92;16.63;;;2.60;99.90;;;;;;4940819;28;20075;-82
2021/01/25 08:04:34;;;;;;;33.20;19.50;;;2.60;99.90;;;;;;4939529;29;20020;-81
2021/01/25 08:07:02;;;;;;;33.55;19.00;;;;;;;;;;4945267;28;20048;-81
2021/01/25 08:09:37;;;;;;;33.35;17.00;;;2.50;99.90;;;;;;4958867;29;20019;-81
2021/01/25 08:12:04;;;;;;;30.13;17.25;;;;;;;;;;4955838;28;20063;-81
2021/01/25 08:14:35;;;;;;;33.30;19.60;;;2.60;99.90;;;;;;4953255;29;20064;-80
2021/01/25 08:17:09;;;;;;;33.60;17.38;;;2.50;99.90;;;;;;4952912;28;20089;-80
2021/01/25 08:22:08;;;;;;;27.35;16.35;;;2.70;99.90;;;;;;4958567;28;20043;-81
2021/01/25 08:24:34;;;;;;;30.87;17.17;;;;;;;;;;4954959;29;20035;-81
2021/01/25 08:27:22;;;;;;;32.70;16.77;;;2.60;99.90;;;;;;4919271;29;20056;-81
2021/01/25 08:29:50;;;;;;;36.65;17.63;;;2.60;99.90;;;;;;4935827;29;20452;-82
2021/01/25 08:32:33;;;;;;;29.15;15.70;;;2.60;99.90;;;;;;4929384;28;20055;-82
2021/01/25 08:35:04;;;;;;;28.13;17.75;;;2.60;99.90;;;;;;4940640;29;20082;-82
2021/01/25 08:37:32;;;;;;;30.10;16.45;;;2.60;99.90;;;;;;4938245;28;20031;-81
2021/01/25 08:40:11;;;;;;;35.05;18.58;;;2.70;99.90;;;;;;4943428;29;20084;-82
2021/01/25 08:42:37;;;;;;;31.42;15.75;;;;;;;;;;4949703;29;20038;-83
2021/01/25 08:45:10;;;;;;;30.42;15.07;;;2.70;99.90;;;;;;4935796;29;20074;-82
2021/01/25 08:47:55;;;;;;;26.10;15.52;;;2.80;99.90;;;;;;4979370;23;20060;-84
2021/01/25 08:50:29;;;;;;;26.73;15.02;;;2.90;99.90;;;;;;4972209;28;20031;-84
2021/01/25 08:56:51;;;;;;;61.05;33.08;;;2.90;99.90;;;;;;4955920;29;20050;-85
2021/01/25 08:59:38;;;;;;;28.75;16.15;;;;;;;;;;4915756;29;20042;-82
2021/01/25 09:02:32;;;;;;;28.67;16.00;;;3.10;99.90;;;;;;4949352;29;20038;-80
2021/01/25 09:04:59;;;;;;;26.80;13.65;;;;;;;;;;4948523;28;20052;-82
2021/01/25 09:07:25;;;;;;;24.92;13.75;;;;;;;;;;4953525;29;20048;-82
2021/01/25 09:09:56;;;;;;;27.50;16.00;;;;;;;;;;4937558;29;20051;-81
2021/01/25 09:12:25;;;;;;;27.08;16.40;;;;;;;;;;4955382;29;20035;-83
2021/01/25 09:14:57;;;;;;;32.10;15.43;;;;;;;;;;4949313;29;20031;-82
2021/01/25 09:17:35;;;;;;;41.92;21.35;;;;;;;;;;4954421;29;20046;-81
2021/01/25 09:20:02;;;;;;;29.02;16.48;;;;;;;;;;4934168;29;20104;-81
2021/01/25 09:22:43;;;;;;;28.00;15.32;;;3.20;99.90;;;;;;4938347;29;20052;-81
2021/01/25 09:25:12;;;;;;;27.35;16.42;;;3.20;99.90;;;;;;4951083;29;20032;-80
2021/01/25 09:27:39;;;;;;;31.65;18.65;;;;;;;;;;4951344;29;20051;-82
2021/01/25 09:30:19;;;;;;;26.80;16.25;;;3.10;99.90;;;;;;4956851;29;20024;-81
2021/01/25 09:32:48;;;;;;;29.58;16.63;;;;;;;;;;4939300;29;20066;-82
2021/01/25 09:35:21;;;;;;;28.33;17.00;;;;;;;;;;4927839;29;20027;-82
2021/01/25 09:37:59;;;;;;;27.98;15.60;;;;;;;;;;4925612;29;20087;-82
2021/01/25 09:40:33;;;;;;;32.17;18.02;;;;;;;;;;4932329;29;20027;-83
2021/01/25 09:43:10;;;;;;;27.60;16.40;;;3.20;99.90;;;;;;4951374;29;20058;-82
2021/01/25 09:45:47;;;;;;;26.48;14.85;;;;;;;;;;4952981;29;20051;-81
2021/01/25 09:48:18;;;;;;;23.63;14.05;;;;;;;;;;4949268;29;20054;-82
2021/01/25 09:51:05;;;;;;;23.55;14.88;;;3.50;99.90;;;;;;4959968;28;20026;-82
2021/01/25 09:54:25;;;;;;;181.73;114.35;;;3.60;99.90;;;;;;4957748;29;20038;-84
2021/01/25 10:00:27;;;;;;;;;;;;;;;;;;;;;
2021/01/25 10:03:30;;;;;;;28.75;14.70;;;3.40;99.90;;;;;;4940783;29;20036;-81
2021/01/25 10:07:09;;;;;;;22.35;14.50;;;3.50;99.90;;;;;;4930040;29;20091;-81
2021/01/25 10:09:45;;;;;;;23.73;13.57;;;;;;;;;;4912029;29;20052;-82
2021/01/25 10:16:25;;;;;;;25.77;13.85;;;3.40;99.90;;;;;;4830525;29;20031;-82
2021/01/25 10:19:06;;;;;;;22.05;13.95;;;;;;;;;;4884433;29;20040;-83
2021/01/25 10:21:38;;;;;;;23.85;13.73;;;;;;;;;;4899216;29;20018;-81
2021/01/25 10:24:29;;;;;;;22.10;12.80;;;;;;;;;;4935268;29;20440;-81
2021/01/25 10:27:14;;;;;;;;;;;;;;;;;;;;;
2021/01/25 10:29:48;;;;;;;25.70;13.73;;;;;;;;;;4965751;29;20129;-82
2021/01/25 10:32:21;;;;;;;22.70;13.43;;;;;;;;;;4945675;29;20066;-81
2021/01/25 10:35:38;;;;;;;28.27;14.15;;;3.70;99.90;;;;;;4947026;29;20071;-80
2021/01/25 10:38:18;;;;;;;24.33;13.48;;;3.80;99.90;;;;;;4953278;28;20028;-82
2021/01/25 10:40:54;;;;;;;27.42;14.13;;;;;;;;;;4945726;29;20016;-82
2021/01/25 10:44:11;;;;;;;23.90;13.63;;;3.80;99.90;;;;;;4969058;29;20045;-82
2021/01/25 10:47:18;;;;;;;;;;;;;;;;;;;;;
2021/01/25 10:50:13;;;;;;;22.45;12.98;;;3.90;99.90;;;;;;4948185;29;20039;-82
2021/01/25 10:52:54;;;;;;;23.13;13.27;;;;;;;;;;4947643;29;20031;-81
2021/01/25 10:56:02;;;;;;;29.17;13.98;;;3.90;99.90;;;;;;4917949;29;20051;-82
2021/01/25 10:58:38;;;;;;;22.80;12.35;;;4.10;99.90;;;;;;4947574;29;20028;-81
2021/01/25 11:01:45;;;;;;;20.83;12.48;;;4.20;99.90;;;;;;4927750;29;20091;-82
2021/01/25 11:05:12;;;;;;;25.65;13.63;;;4.20;99.90;;;;;;4924558;29;20187;-81
2021/01/25 11:08:03;;;;;;;;;;;;;;;;;;;;;
2021/01/25 11:11:01;;;;;;;22.08;12.60;;;3.80;99.90;;;;;;4852548;29;20061;-82
2021/01/25 11:13:52;;;;;;;21.75;11.63;;;3.80;99.90;;;;;;4948651;29;20520;-82
2021/01/25 11:16:42;;;;;;;;;;;;;;;;;;;;;
2021/01/25 11:19:27;;;;;;;20.67;12.30;;;;;;;;;;4943588;29;20063;-82
2021/01/25 11:24:55;;;;;;;19.63;12.02;;;;;;;;;;4921006;27;20062;-83
2021/01/25 11:28:16;;;;;;;24.02;12.75;;;3.90;99.90;;;;;;4967588;29;20249;-82
2021/01/25 11:31:17;;;;;;;26.20;13.95;;;3.80;99.90;;;;;;4927378;29;20039;-83
2021/01/25 11:34:31;;;;;;;24.90;13.15;;;3.60;99.90;;;;;;4992788;23;20064;-82
2021/01/25 11:37:26;;;;;;;20.38;12.38;;;;;;;;;;4907455;29;20051;-83
2021/01/25 11:40:04;;;;;;;17.65;10.70;;;3.60;99.90;;;;;;4902279;29;20037;-83
2021/01/25 11:45:09;;;;;;;20.30;11.20;;;;;;;;;;4925408;29;20056;-82
2021/01/25 11:47:42;;;;;;;14.88;9.77;;;3.80;99.90;;;;;;4923744;29;20029;-81
2021/01/25 11:50:12;;;;;;;19.33;11.52;;;3.80;99.90;;;;;;4888934;29;20060;-82
2021/01/25 11:56:12;;;;;;;16.52;10.18;;;3.90;99.90;;;;;;4911776;29;20104;-83
2021/01/25 11:58:47;;;;;;;15.35;10.40;;;;;;;;;;4888742;29;20042;-83
2021/01/25 12:01:21;;;;;;;21.73;11.95;;;;;;;;;;4919751;29;20052;-82
2021/01/25 12:03:57;;;;;;;18.65;10.45;;;4.00;99.90;;;;;;4903147;29;20032;-82
2021/01/25 12:06:27;;;;;;;14.95;9.63;;;;;;;;;;4875997;29;20069;-84
2021/01/25 12:08:54;;;;;;;18.80;9.32;;;;;;;;;;4928415;29;20029;-81
2021/01/25 12:11:42;;;;;;;16.63;10.20;;;;;;;;;;4924830;29;20098;-82
2021/01/25 12:14:15;;;;;;;16.95;10.85;;;3.80;99.90;;;;;;4921443;29;20037;-82
2021/01/25 12:16:44;;;;;;;19.20;11.48;;;;;;;;;;4919486;29;20096;-82
2021/01/25 12:19:24;;;;;;;17.45;11.88;;;;;;;;;;4919989;29;20051;-82
2021/01/25 12:24:44;;;;;;;23.38;12.98;;;;;;;;;;4909470;29;20043;-81
2021/01/25 12:27:31;;;;;;;25.55;14.02;;;;;;;;;;4916244;29;20602;-81
2021/01/25 12:30:23;;;;;;;22.95;13.38;;;3.50;99.90;;;;;;4911781;29;20033;-81
2021/01/25 12:32:54;;;;;;;22.70;12.82;;;;;;;;;;4887454;29;20065;-81
2021/01/25 12:35:25;;;;;;;22.85;13.10;;;;;;;;;;4898289;29;20017;-82
2021/01/25 12:37:53;;;;;;;22.58;13.00;;;;;;;;;;4902559;29;20032;-81
2021/01/25 12:40:21;;;;;;;25.63;14.32;;;;;;;;;;4921595;29;20055;-82
2021/01/25 12:42:51;;;;;;;22.15;13.50;;;;;;;;;;4917812;29;20134;-83
2021/01/25 12:45:23;;;;;;;25.50;15.07;;;3.90;99.90;;;;;;4911197;29;20063;-83
2021/01/25 12:47:50;;;;;;;25.08;13.95;;;;;;;;;;4907339;29;20036;-83
2021/01/25 12:50:17;;;;;;;22.13;14.07;;;;;;;;;;4911752;29;20012;-82
2021/01/25 12:52:51;;;;;;;26.52;13.73;;;4.20;99.90;;;;;;4919172;29;20357;-82
2021/01/25 12:55:34;;;;;;;26.00;14.57;;;;;;;;;;4913979;29;20036;-83
2021/01/25 12:58:32;;;;;;;26.08;14.55;;;4.20;99.90;;;;;;4908585;29;20055;-83
2021/01/25 13:00:58;;;;;;;25.42;13.98;;;;;;;;;;4907724;29;20050;-82
2021/01/25 13:03:27;;;;;;;26.85;14.27;;;;;;;;;;4906720;29;20059;-81
2021/01/25 13:06:00;;;;;;;25.48;14.13;;;;;;;;;;4915897;29;20127;-82
2021/01/25 13:08:27;;;;;;;27.55;15.63;;;4.00;99.90;;;;;;4907792;29;20028;-82
2021/01/25 13:10:55;;;;;;;25.15;15.43;;;;;;;;;;4902625;29;20061;-82
2021/01/25 13:13:21;;;;;;;27.98;15.13;;;;;;;;;;4935259;29;20028;-82
2021/01/25 13:15:52;;;;;;;199.32;117.28;;;3.90;99.90;;;;;;4940467;28;20039;-84
2021/01/25 13:19:01;;;;;;;49.65;28.75;;;4.00;99.90;;;;;;4915728;29;20051;-83
2021/01/25 13:21:38;;;;;;;44.35;25.63;;;;;;;;;;4920462;29;20091;-82
2021/01/25 13:24:04;;;;;;;25.08;14.80;;;;;;;;;;4942775;29;20027;-82
2021/01/25 13:26:52;;;;;;;25.98;15.32;;;3.90;99.90;;;;;;4928693;29;20060;-82
2021/01/25 13:29:28;;;;;;;26.55;15.32;;;3.80;99.90;;;;;;4945236;29;20023;-82
2021/01/25 13:32:23;;;;;;;23.95;15.75;;;3.70;99.90;;;;;;4921194;29;20032;-84
2021/01/25 13:34:52;;;;;;;27.83;14.70;;;2.90;99.90;;;;;;4928590;29;20104;-81
2021/01/25 13:37:22;;;;;;;26.35;16.08;;;;;;;;;;4951304;28;20011;-83
2021/01/25 13:39:59;;;;;;;27.73;14.70;;;3.90;99.90;;;;;;4946024;29;20036;-82
2021/01/25 13:42:28;;;;;;;26.02;13.60;;;4.00;99.90;;;;;;4917224;29;20094;-84
2021/01/25 13:45:10;;;;;;;25.23;13.77;;;3.80;99.90;;;;;;4929309;29;20095;-85
2021/01/25 13:47:39;;;;;;;27.80;13.90;;;;;;;;;;4929684;29;20050;-84
2021/01/25 13:50:38;;;;;;;;;;;;;;;;;;;;;
2021/01/25 13:53:28;;;;;;;28.92;13.60;;;4.00;99.90;;;;;;4905502;29;20689;-81
2021/01/25 13:56:27;;;;;;;21.40;11.18;;;3.90;99.90;;;;;;4939277;29;20039;-84
2021/01/25 13:58:54;;;;;;;18.40;10.13;;;;;;;;;;4930205;29;20036;-83
2021/01/25 14:01:20;;;;;;;18.83;10.13;;;;;;;;;;4912461;29;20035;-83
2021/01/25 14:03:54;;;;;;;23.00;11.73;;;;;;;;;;4944267;29;20032;-82
2021/01/25 14:06:26;;;;;;;20.10;10.68;;;;;;;;;;4932596;29;20035;-82
2021/01/25 14:08:59;;;;;;;22.98;12.43;;;3.80;99.90;;;;;;4951834;29;20034;-84
2021/01/25 14:11:49;;;;;;;19.92;11.93;;;;;;;;;;4952649;29;20032;-82
2021/01/25 14:15:24;;;;;;;;;;;;;;;;;;;;;
2021/01/25 14:18:20;;;;;;;19.38;12.00;;;3.80;99.90;;;;;;4936952;28;20063;-81